Pagrindinis puslapis
METAR-TAF:

METAR-TAF

Oro uostai :

Šeleftėjas, Švedija

platuma: 64-38N, ilguma: 021-05E, Aukštis: 49 m

Dabartinis oras

Ataskaita buvo paskelbta 21 minutes, ne 10:50 UTC
Vėjas 4 kt iš Pietų/Pietvakarių, svyruoja nuo Pietų ir Vakarų/Pietvakarių
Temperatūra -4°C
Drėgmė 100%
Slėgis 1004 hPa
Matomumas 10 km arba daugiau
Su prošvaistėmis ne aukštis 900 ft

METAR: ESNS 071050Z 21004KT 180V240 9999 BKN009 M04/M04 Q1004

Laikas: 12:11 (11:11 UTC)

Prognozė

Ataskaita buvo paskelbta 2 valandos ir 41 minutes, ne 08:30 UTC
Prognozė galioja nuo 07 metu 09 UTC su 07 metu 18 UTC
Vėjas 4 kt iš Vakarų/Pietvakarių
Matomumas: 7000 m
Su prošvaistėmis ne aukštis 2000 ft
sniegas
Tikimybė 40%
nuo 07 metu 09 UTC su 07 metu 12 UTC
Matomumas: 2500 m
Su prošvaistėmis ne aukštis 800 ft

TAF: ESNS 070830Z 0709/0718 24004KT 7000 -SN BKN020 PROB40 0709/0712 2500 BKN008

Orai ataskaitas ir orų prognozės (METAR, TAF).

turimą stotys yra geltonos ir raudonos taškus žemėlapyje.

Perkelti pele per norėdami pamatyti stoties vardą.

Tada spustelėkite, norėdami matyti oro stebėjimo ir prognozės.

Norėdami pakeisti žemėlapį: spustelėkite ant žalios mygtukų su juodo kryžiaus žemyn,; žalią mygtuką su brūkšneliu, jei norite nutolinti; arba žalių rodyklių gretimoms žemėlapius.


METAR-TAF: